Latest Weather Observations for Cape Wessel

IDD60801

Issued at 11:31 pm CST Sunday 20 May 2018 (issued every 10 minutes, with the page automatically refreshed every 10 minutes)

About weather observations | Map of weather stations | Latest weather observations for NT | Other Formats
Station Details ID: 200786 Name: CAPE WESSEL Lat: -11.00 Lon: 136.76 Height: 18.0 m
Data from the previous 72 hours. | See also: Recent months at Cape Wessel
Date/Time
CST
Temp
°C
App
Temp
°C
Dew
Point
°C
Rel
Hum
%
Delta-T
°C
Wind Press
QNH
hPa
Press
MSL
hPa
Rain since
9am
mm
Dir  Spd
km/h
Gust
km/h
Spd
kts
Gust
kts
20/11:30pm 27.1 25.7 24.2 84 2.0 SE 39 48 21 26 1011.9 1011.8 0.0
20/11:00pm 27.2 25.9 24.5 85 1.9 SE 39 50 21 27 1012.0 1011.9 0.0
20/10:30pm 27.3 25.7 24.6 85 1.9 SE 41 50 22 27 1011.9 1011.8 0.0
20/10:00pm 27.2 25.4 24.3 84 2.0 SE 41 52 22 28 1011.9 1011.8 0.0
20/09:30pm 27.4 25.1 24.1 82 2.3 SE 43 54 23 29 1011.9 1011.8 0.0
20/09:00pm 27.5 25.8 24.4 83 2.2 SE 41 50 22 27 1011.8 1011.7 0.0
20/08:30pm 27.5 25.9 24.6 84 2.0 SE 41 52 22 28 1011.6 1011.5 0.0
20/08:00pm 27.3 25.5 24.2 83 2.1 SE 41 54 22 29 1011.2 1011.1 0.0
20/07:30pm 27.3 25.5 24.2 83 2.1 SE 41 50 22 27 1010.6 1010.5 0.0
20/07:00pm 27.3 25.5 24.2 83 2.1 SE 41 52 22 28 1010.3 1010.2 0.0
20/06:30pm 27.2 24.8 23.9 82 2.3 SE 43 52 23 28 1009.9 1009.8 0.0
20/06:00pm 27.3 25.7 24.0 82 2.3 SE 39 48 21 26 1009.7 1009.6 0.0
20/05:30pm 27.4 25.6 23.6 80 2.6 SE 39 48 21 26 1009.6 1009.5 0.0
20/05:00pm 27.7 26.5 23.9 80 2.6 SE 37 46 20 25 1009.6 1009.5 0.0
20/04:30pm 28.0 27.2 24.0 79 2.8 SE 35 46 19 25 1009.5 1009.4 0.0
20/04:00pm 28.3 27.7 24.3 79 2.8 SE 35 43 19 23 1009.4 1009.3 0.0
20/03:30pm 28.7 28.3 24.0 76 3.3 SE 33 43 18 23 1009.6 1009.5 0.0
20/03:00pm 29.0 28.9 24.3 76 3.3 SE 32 39 17 21 1009.7 1009.6 0.0
20/02:30pm 28.9 28.4 23.8 74 3.5 SE 33 39 18 21 1010.0 1009.9 0.0
20/02:00pm 29.4 29.5 24.0 72 3.7 ESE 30 37 16 20 1010.4 1010.3 0.0
20/01:30pm 29.3 30.2 24.6 76 3.3 ESE 28 39 15 21 1010.8 1010.7 0.0
20/01:00pm 28.7 30.2 24.9 80 2.7 SE 26 32 14 17 1011.2 1011.1 0.0
20/12:30pm 29.0 29.9 24.6 77 3.1 SE 28 33 15 18 1011.6 1011.5 0.0
20/12:00pm 28.5 28.8 24.3 78 2.9 SE 30 35 16 19 1012.0 1011.9 0.0
20/11:30am 28.2 27.8 24.0 78 2.9 SE 33 39 18 21 1012.1 1012.0 0.0
20/11:00am 27.7 26.5 23.9 80 2.6 SE 37 44 20 24 1012.2 1012.1 0.0
20/10:30am 27.8 26.6 24.0 80 2.6 SE 37 44 20 24 1012.3 1012.2 0.0
20/10:00am 27.7 26.3 23.7 79 2.8 SE 37 44 20 24 1012.4 1012.3 0.0
20/09:30am 27.5 27.1 24.1 82 2.4 ESE 33 46 18 25 1012.1 1012.0 0.0
20/09:00am 27.8 25.4 23.8 79 2.8 SE 43 52 23 28 1012.0 1011.9 0.0
20/08:30am 27.5 25.9 23.9 81 2.5 SE 39 46 21 25 1012.0 1011.9 0.0
20/08:00am 27.3 24.7 23.5 80 2.6 SE 43 54 23 29 1011.6 1011.5 0.0
20/07:30am 27.2 26.1 24.1 83 2.1 SE 37 48 20 26 1011.0 1010.9 0.0
20/07:00am 27.1 25.5 24.0 83 2.1 SE 39 50 21 27 1010.5 1010.4 0.0
20/06:30am 27.0 25.4 23.9 83 2.1 SE 39 50 21 27 1010.2 1010.1 0.0
20/06:00am 27.0 25.5 24.1 84 2.0 SE 39 50 21 27 1009.9 1009.8 0.0
20/05:30am 26.9 24.5 23.8 83 2.1 SE 43 52 23 28 1009.6 1009.5 0.0
20/05:00am 26.9 24.6 24.0 84 2.0 SE 43 52 23 28 1009.0 1008.9 0.0
20/04:30am 26.9 24.8 23.8 83 2.1 SE 41 54 22 29 1008.8 1008.7 0.0
20/04:00am 26.9 25.3 24.0 84 2.0 SE 39 50 21 27 1009.0 1008.9 0.0
20/03:30am 27.0 25.0 23.9 83 2.1 SE 41 50 22 27 1009.2 1009.1 0.0
20/03:00am 27.1 25.2 24.0 83 2.1 SE 41 52 22 28 1009.2 1009.1 0.0
20/02:30am 27.0 25.5 24.1 84 2.0 SE 39 48 21 26 1009.1 1009.0 0.0
20/02:00am 26.9 25.8 24.2 85 1.9 SE 37 44 20 24 1009.4 1009.3 0.0
20/01:30am 26.8 26.1 24.1 85 1.9 SE 35 43 19 23 1009.9 1009.8 0.0
20/01:00am 26.8 26.2 24.3 86 1.7 SE 35 44 19 24 1010.1 1010.0 0.0
20/12:30am 26.7 26.3 24.0 85 1.9 SE 33 41 18 22 1010.3 1010.2 0.0
20/12:00am 26.8 26.6 24.3 86 1.7 SE 33 44 18 24 1010.7 1010.6 0.0
 
Date/Time
CST
Temp
°C
App
Temp
°C
Dew
Point
°C
Rel
Hum
%
Delta-T
°C
Wind Press
QNH
hPa
Press
MSL
hPa
Rain since
9am
mm
Dir  Spd
km/h
Gust
km/h
Spd
kts
Gust
kts
19/11:30pm 26.8 26.6 24.3 86 1.7 SE 33 43 18 23 1010.9 1010.8 0.0
19/11:00pm 26.9 26.3 24.4 86 1.7 SE 35 43 19 23 1011.1 1011.0 0.0
19/10:30pm 26.9 26.1 24.0 84 2.0 SE 35 43 19 23 1011.3 1011.2 0.0
19/10:00pm 26.7 25.6 23.4 82 2.3 SE 35 46 19 25 1011.5 1011.4 0.0
19/09:30pm 26.8 26.2 24.3 86 1.7 SE 35 44 19 24 1011.5 1011.4 0.0
19/09:00pm 26.8 26.1 24.1 85 1.9 SE 35 43 19 23 1011.3 1011.2 0.0
19/08:30pm 26.9 26.2 24.2 85 1.9 SE 35 43 19 23 1011.2 1011.1 0.0
19/08:00pm 26.8 26.9 24.5 87 1.6 SE 32 41 17 22 1010.9 1010.8 0.0
19/07:30pm 26.8 26.3 24.5 87 1.6 SE 35 43 19 23 1010.4 1010.3 0.0
19/07:00pm 26.8 26.7 24.3 86 1.7 SE 32 39 17 21 1010.0 1009.9 0.0
19/06:30pm 26.9 26.7 24.4 86 1.7 SE 33 41 18 22 1009.8 1009.7 0.0
19/06:00pm 26.9 26.2 24.2 85 1.9 SE 35 43 19 23 1009.4 1009.3 0.0
19/05:30pm 27.1 27.0 24.2 84 2.0 SE 32 39 17 21 1009.1 1009.0 0.0
19/05:00pm 28.0 27.2 24.0 79 2.8 SE 35 43 19 23 1009.0 1008.9 0.0
19/04:30pm 27.1 26.8 23.8 82 2.3 SE 32 43 17 23 1008.6 1008.5 0.0
19/04:00pm 28.6 28.7 24.6 79 2.8 SE 32 39 17 21 1008.4 1008.3 0.0
19/03:30pm 30.6 31.0 25.0 72 3.9 SE 32 39 17 21 1008.4 1008.3 0.0
19/03:00pm 30.5 31.0 24.6 70 4.1 SSE 30 37 16 20 1008.5 1008.4 0.0
19/02:30pm 30.8 30.2 24.4 68 4.5 SE 35 43 19 23 1008.6 1008.5 0.0
19/02:00pm 29.9 29.6 23.8 70 4.2 SSE 32 37 17 20 1008.9 1008.8 0.0
19/01:30pm 31.3 31.3 24.4 66 4.8 SE 32 39 17 21 1009.1 1009.0 0.0
19/01:00pm 31.2 31.1 24.6 68 4.6 SE 33 41 18 22 1009.5 1009.4 0.0
19/12:30pm 30.8 30.6 24.4 68 4.5 SE 33 39 18 21 1009.8 1009.7 0.0
19/12:00pm 31.0 31.4 24.4 68 4.6 SE 30 35 16 19 1010.0 1009.9 0.0
19/11:30am 30.1 29.0 23.5 67 4.6 ESE 35 44 19 24 1010.2 1010.1 0.0
19/11:00am 29.3 27.7 23.3 70 4.1 SE 37 46 20 25 1010.1 1010.0 0.0
19/10:30am 30.1 28.5 23.3 67 4.7 SE 37 46 20 25 1010.4 1010.3 0.0
19/10:00am 30.1 28.9 23.3 67 4.7 SE 35 44 19 24 1010.7 1010.6 0.0
19/09:30am 29.6 27.5 23.1 68 4.5 SE 39 50 21 27 1010.8 1010.7 0.0
19/09:00am 29.1 26.1 22.8 69 4.3 SE 43 50 23 27 1010.7 1010.6 0.0
19/08:30am 28.5 25.7 22.5 70 4.1 SE 41 50 22 27 1010.6 1010.5 0.0
19/08:00am 27.6 24.8 22.5 74 3.5 SE 41 50 22 27 1010.3 1010.2 0.0
19/07:30am 27.7 24.9 22.4 73 3.6 SE 41 50 22 27 1010.2 1010.1 0.0
19/07:00am 26.9 23.9 22.1 75 3.2 SE 41 54 22 29 1010.0 1009.9 0.0
19/06:30am 26.6 23.3 21.6 74 3.3 SE 41 54 22 29 1009.7 1009.6 0.0
19/06:00am 26.6 23.1 21.8 75 3.2 SE 43 54 23 29 1009.4 1009.3 0.0
19/05:30am 26.6 23.2 22.4 78 2.8 SE 44 54 24 29 1009.2 1009.1 0.0
19/05:00am 26.5 23.9 22.8 80 2.5 SSE 41 52 22 28 1008.9 1008.8 0.0
19/04:30am 26.3 23.6 22.6 80 2.5 SSE 41 50 22 27 1008.7 1008.6 0.0
19/04:00am 26.3 23.5 22.4 79 2.6 SSE 41 52 22 28 1008.6 1008.5 0.0
19/03:30am 26.3 23.1 22.4 79 2.6 SSE 43 54 23 29 1008.8 1008.7 0.0
19/03:00am 26.4 23.2 22.5 79 2.6 SSE 43 52 23 28 1009.1 1009.0 0.0
19/02:30am 26.5 24.0 23.0 81 2.4 SSE 41 56 22 30 1009.1 1009.0 0.0
19/02:00am 26.5 23.3 22.8 80 2.5 SSE 44 56 24 30 1009.2 1009.1 0.0
19/01:30am 26.5 22.8 22.6 79 2.6 SSE 46 57 25 31 1009.5 1009.4 0.0
19/01:00am 26.5 23.2 22.6 79 2.6 SSE 44 61 24 33 1009.7 1009.6 0.0
19/12:30am 26.7 23.7 23.2 81 2.4 SSE 44 59 24 32 1010.1 1010.0 0.0
19/12:00am 26.7 22.5 22.3 77 3.0 SSE 48 57 26 31 1010.3 1010.2 0.0
 
Date/Time
CST
Temp
°C
App
Temp
°C
Dew
Point
°C
Rel
Hum
%
Delta-T
°C
Wind Press
QNH
hPa
Press
MSL
hPa
Rain since
9am
mm
Dir  Spd
km/h
Gust
km/h
Spd
kts
Gust
kts
18/11:30pm 26.8 23.2 22.8 79 2.7 SSE 46 57 25 31 1010.5 1010.4 0.0
18/11:00pm 26.9 23.6 22.7 78 2.8 SE 44 56 24 30 1010.6 1010.5 0.0
18/10:30pm 26.7 23.5 22.5 78 2.8 SSE 43 54 23 29 1010.7 1010.6 0.0
18/10:00pm 26.9 23.0 22.9 79 2.7 SSE 48 57 26 31 1010.8 1010.7 0.0
18/09:30pm 26.9 23.3 22.7 78 2.8 SSE 46 57 25 31 1010.9 1010.8 0.0
18/09:00pm 26.9 23.3 22.7 78 2.8 SE 46 57 25 31 1010.9 1010.8 0.0
18/08:30pm 26.8 23.0 22.4 77 3.0 SE 46 59 25 32 1010.8 1010.7 0.0
18/08:00pm 26.9 23.3 22.7 78 2.8 SE 46 57 25 31 1010.2 1010.1 0.0
18/07:30pm 26.9 23.8 22.9 79 2.7 SSE 44 56 24 30 1009.8 1009.7 0.0
18/07:00pm 27.0 23.9 23.0 79 2.7 SE 44 56 24 30 1009.4 1009.3 0.0
18/06:30pm 27.1 24.4 23.3 80 2.6 SSE 43 52 23 28 1009.0 1008.9 0.0
18/06:00pm 27.1 24.1 22.9 78 2.9 SE 43 52 23 28 1008.8 1008.7 0.0
18/05:30pm 27.4 24.9 23.0 77 3.0 SE 41 52 22 28 1008.7 1008.6 0.0
18/05:00pm 27.9 25.8 23.1 75 3.3 SE 39 48 21 26 1008.3 1008.2 0.0
18/04:30pm 28.2 25.9 22.7 72 3.7 SE 39 54 21 29 1008.0 1007.9 0.0
18/04:00pm 28.7 26.5 22.9 71 4.0 SE 39 48 21 26 1008.0 1007.9 0.0
18/03:30pm 30.0 28.9 23.4 67 4.6 SE 35 46 19 25 1008.0 1007.9 0.0
18/03:00pm 30.2 28.4 23.6 67 4.6 SE 39 46 21 25 1008.1 1008.0 0.0
18/02:30pm 30.9 29.1 23.0 62 5.4 SE 37 48 20 26 1008.4 1008.3 0.0
18/02:00pm 30.9 28.7 22.8 62 5.5 SE 39 50 21 27 1008.6 1008.5 0.0
18/01:30pm 30.9 28.3 22.8 62 5.6 SSE 41 50 22 27 1008.9 1008.8 0.0
18/01:00pm 30.7 27.8 21.5 58 6.2 SE 39 48 21 26 1009.4 1009.3 0.0
18/12:30pm 31.0 27.5 22.3 60 5.9 SE 44 52 24 28 1009.9 1009.8 0.0
18/12:00pm 30.7 27.8 22.3 61 5.7 SE 41 50 22 27 1010.2 1010.1 0.0
18/11:30am 30.5 26.9 22.1 61 5.7 SE 44 56 24 30 1010.5 1010.4 0.0
18/11:00am 30.7 28.2 23.1 64 5.2 SE 41 54 22 29 1010.6 1010.5 0.0
18/10:30am 30.2 27.8 22.6 63 5.2 SE 39 54 21 29 1010.9 1010.8 0.0
18/10:00am 29.9 27.3 22.9 66 4.8 SE 41 50 22 27 1011.1 1011.0 0.0
18/09:30am 29.5 27.1 22.5 66 4.8 SE 39 52 21 28 1011.1 1011.0 0.0
18/09:00am 28.8 26.2 22.8 70 4.1 SE 41 50 22 27 1011.0 1010.9 0.0
18/08:30am 27.8 24.4 22.1 71 3.8 SE 43 52 23 28 1010.7 1010.6 0.0
18/08:00am 27.8 25.0 22.5 73 3.6 SSE 41 54 22 29 1010.3 1010.2 0.0
18/07:30am 27.5 24.8 22.7 75 3.3 SSE 41 52 22 28 1010.1 1010.0 0.0
18/07:00am 26.8 23.8 22.2 76 3.1 SSE 41 52 22 28 1010.0 1009.9 0.0
18/06:30am 26.5 23.5 22.1 77 3.0 SSE 41 50 22 27 1009.8 1009.7 0.0
18/06:00am 26.4 23.7 22.0 77 3.0 SSE 39 50 21 27 1009.7 1009.6 0.0
18/05:30am 26.3 24.3 22.6 80 2.5 SSE 37 46 20 25 1009.5 1009.4 0.0
18/05:00am 26.2 24.0 22.1 78 2.7 SSE 37 46 20 25 1009.6 1009.5 0.0
18/04:30am 26.1 24.4 21.7 77 2.9 SSE 33 46 18 25 1009.7 1009.6 0.0
18/04:00am 26.1 23.9 21.5 76 3.1 SSE 35 46 19 25 1009.7 1009.6 0.0
18/03:30am 26.2 24.2 21.8 77 2.9 SSE 35 46 19 25 1009.9 1009.8 0.0
18/03:00am 26.2 23.7 21.6 76 3.1 SSE 37 48 20 26 1009.9 1009.8 0.0
18/02:30am 26.2 23.3 21.6 76 3.1 SSE 39 48 21 26 1009.9 1009.8 0.0
18/02:00am 26.3 23.9 21.9 77 2.9 SSE 37 46 20 25 1010.2 1010.1 0.0
18/01:30am 26.4 23.6 21.8 76 3.1 SSE 39 50 21 27 1010.5 1010.4 0.0
18/01:00am 26.4 23.5 21.6 75 3.2 SSE 39 52 21 28 1010.6 1010.5 0.0
18/12:30am 26.5 22.8 21.5 74 3.3 SSE 43 54 23 29 1010.8 1010.7 0.0
18/12:00am 26.7 22.9 21.7 74 3.3 SSE 44 54 24 29 1011.1 1011.0 0.0

Other Formats:

Comma delimited format used in spreadsheet applications
http://www.bom.gov.au/fwo/IDD60801/IDD60801.94147.axf

JavaScript Object Notation format (JSON) in row-major order
http://www.bom.gov.au/fwo/IDD60801/IDD60801.94147.json